Time;durP1;ratioP1;P1;durP2;ratioP2;P2;SDS_P1;SDS_P2;PMS_P1;PMS_P2;Temp;Humidity;BMP_temperature;BMP_pressure;BME280_temperature;BME280_humidity;BME280_pressure;Samples;Min_cycle;Max_cycle;Signal;HPM_P1;HPM_P2
2022/10/20 00:01:54;;;;;;;69.33;21.43;;;19.10;99.90;;;;;;5049370;28;20491;-62
2022/10/20 00:04:23;;;;;;;84.40;24.07;;;;;;;;;;5050270;28;20803;-63
2022/10/20 00:06:50;;;;;;;81.87;21.80;;;;;;;;;;5041132;28;20480;-63
2022/10/20 00:09:17;;;;;;;98.60;23.67;;;;;;;;;;5049527;28;21083;-62
2022/10/20 00:11:44;;;;;;;54.07;20.37;;;14.60;99.90;;;;;;5049596;28;20471;-63
2022/10/20 00:14:12;;;;;;;116.80;28.93;;;14.60;99.90;;;;;;5040906;28;21048;-63
2022/10/20 00:16:39;;;;;;;127.50;30.03;;;;;;;;;;5042378;28;21678;-63
2022/10/20 00:19:07;;;;;;;62.50;23.57;;;14.50;99.90;;;;;;5048291;28;20484;-62
2022/10/20 00:21:35;;;;;;;60.47;22.43;;;14.50;99.90;;;;;;5049640;28;20487;-63
2022/10/20 00:24:02;;;;;;;79.63;29.20;;;14.50;99.90;;;;;;5048628;28;20598;-63
2022/10/20 00:26:32;;;;;;;71.83;25.40;;;14.50;99.90;;;;;;5040515;28;20893;-63
2022/10/20 00:28:58;;;;;;;46.70;21.80;;;14.50;99.90;;;;;;5048268;28;21046;-63
2022/10/20 00:31:26;;;;;;;58.80;23.93;;;14.40;99.90;;;;;;5050612;28;20574;-63
2022/10/20 00:33:53;;;;;;;42.10;20.60;;;;;;;;;;5051082;28;20480;-63
2022/10/20 00:36:22;;;;;;;42.00;20.87;;;14.50;99.90;;;;;;5042244;28;20480;-62
2022/10/20 00:38:51;;;;;;;48.67;19.80;;;14.50;99.90;;;;;;5050129;28;20570;-63
2022/10/20 00:41:20;;;;;;;44.80;19.80;;;14.50;99.90;;;;;;5065132;28;20486;-62
2022/10/20 00:43:49;;;;;;;34.90;18.40;;;14.50;99.90;;;;;;5047145;28;20512;-62
2022/10/20 00:46:17;;;;;;;62.83;21.77;;;;;;;;;;5055220;28;20486;-62
2022/10/20 00:48:48;;;;;;;43.63;21.33;;;14.50;99.90;;;;;;5040041;28;20483;-63
2022/10/20 00:51:17;;;;;;;51.50;19.67;;;14.50;99.90;;;;;;5035086;28;20974;-62
2022/10/20 00:53:46;;;;;;;49.53;19.33;;;14.50;99.90;;;;;;5052060;28;20710;-62
2022/10/20 00:56:14;;;;;;;56.63;23.30;;;14.40;99.90;;;;;;5050552;28;20475;-62
2022/10/20 00:58:42;;;;;;;42.83;19.50;;;;;;;;;;5045728;28;20471;-62
2022/10/20 01:01:10;;;;;;;47.27;18.57;;;;;;;;;;5050437;28;20483;-62
2022/10/20 01:03:39;;;;;;;34.07;17.33;;;;;;;;;;5051887;28;20541;-61
2022/10/20 01:06:07;;;;;;;67.00;25.77;;;;;;;;;;5049900;28;20496;-61
2022/10/20 01:08:34;;;;;;;34.20;18.73;;;14.50;99.90;;;;;;5049252;28;20490;-61
2022/10/20 01:11:05;;;;;;;53.80;25.17;;;;;;;;;;5056097;28;20478;-62
2022/10/20 01:13:43;;;;;;;51.03;19.43;;;14.40;99.90;;;;;;5053349;28;20720;-61
2022/10/20 01:16:15;;;;;;;46.40;23.67;;;14.40;99.90;;;;;;5047437;28;20848;-62
2022/10/20 01:18:49;;;;;;;49.17;20.77;;;14.40;99.90;;;;;;5038755;28;20491;-61
2022/10/20 01:21:38;;;;;;;40.93;19.80;;;14.40;99.90;;;;;;5051426;28;20475;-62
2022/10/20 01:24:44;;;;;;;48.83;22.17;;;14.40;99.90;;;;;;5037039;28;20483;-61
2022/10/20 01:27:29;;;;;;;51.50;22.20;;;;;;;;;;5020966;28;20471;-62
2022/10/20 01:30:05;;;;;;;48.50;21.20;;;14.40;99.90;;;;;;5042107;28;20475;-61
2022/10/20 01:32:40;;;;;;;48.97;18.90;;;14.40;99.90;;;;;;5070811;28;20501;-61
2022/10/20 01:35:09;;;;;;;45.97;21.77;;;;;;;;;;5065069;28;20483;-61
2022/10/20 01:37:39;;;;;;;41.97;19.10;;;;;;;;;;5046888;28;20924;-61
2022/10/20 01:40:12;;;;;;;45.43;20.00;;;14.50;99.90;;;;;;5053017;28;20479;-61
2022/10/20 01:42:43;;;;;;;43.50;19.20;;;14.50;99.90;;;;;;5053230;28;20487;-61
2022/10/20 01:45:13;;;;;;;41.23;19.73;;;14.50;99.90;;;;;;5052287;28;20510;-61
2022/10/20 01:47:42;;;;;;;37.53;19.43;;;14.50;99.90;;;;;;5046333;28;20475;-61
2022/10/20 01:50:10;;;;;;;50.27;22.47;;;14.50;99.90;;;;;;5042714;27;20494;-62
2022/10/20 01:52:37;;;;;;;41.93;18.77;;;14.50;99.90;;;;;;5097393;27;20489;-61
2022/10/20 01:55:11;;;;;;;53.00;21.57;;;14.50;99.90;;;;;;5047185;28;20501;-61
2022/10/20 01:57:45;;;;;;;45.43;18.73;;;;;;;;;;5056405;28;20478;-62
2022/10/20 02:00:14;;;;;;;54.97;20.57;;;14.60;99.90;;;;;;5048359;28;20478;-61
2022/10/20 02:03:02;;;;;;;52.07;18.40;;;14.50;99.90;;;;;;5051287;28;20885;-61
2022/10/20 02:05:45;;;;;;;50.17;19.77;;;14.60;99.90;;;;;;5049673;28;20959;-61
2022/10/20 02:08:16;;;;;;;42.77;20.47;;;14.60;99.90;;;;;;5040927;28;20491;-61
2022/10/20 02:10:46;;;;;;;29.40;16.37;;;;;;;;;;5052535;28;20483;-61
2022/10/20 02:13:15;;;;;;;55.03;23.67;;;14.70;99.90;;;;;;5047175;28;20842;-62
2022/10/20 02:15:46;;;;;;;44.93;18.17;;;14.60;99.90;;;;;;5051185;28;20490;-62
2022/10/20 02:18:16;;;;;;;52.00;20.77;;;;;;;;;;5052800;28;21052;-61
2022/10/20 02:20:45;;;;;;;40.20;18.77;;;14.60;99.90;;;;;;5074550;27;20529;-61
2022/10/20 02:23:12;;;;;;;69.77;24.37;;;14.60;99.90;;;;;;5099881;27;20500;-61
2022/10/20 02:25:39;;;;;;;53.77;18.87;;;;;;;;;;5073506;27;20896;-61
2022/10/20 02:28:10;;;;;;;72.87;23.60;;;14.60;99.90;;;;;;5051529;28;20483;-61
2022/10/20 02:30:39;;;;;;;41.93;20.30;;;;;;;;;;5055846;28;20493;-62
2022/10/20 02:33:07;;;;;;;54.27;23.27;;;14.60;99.90;;;;;;5053745;28;20971;-61
2022/10/20 02:35:34;;;;;;;43.37;17.90;;;14.60;99.90;;;;;;5054255;28;20502;-62
2022/10/20 02:38:02;;;;;;;50.33;22.77;;;14.60;99.90;;;;;;5042912;28;20495;-61
2022/10/20 02:40:29;;;;;;;46.43;20.50;;;14.70;99.90;;;;;;5039708;28;20480;-61
2022/10/20 02:42:56;;;;;;;51.13;19.93;;;14.60;99.90;;;;;;5032287;28;20487;-62
2022/10/20 02:45:22;;;;;;;44.23;20.93;;;14.60;99.90;;;;;;5042860;28;20483;-62
2022/10/20 02:47:50;;;;;;;47.37;19.83;;;14.60;99.90;;;;;;5038665;28;20788;-61
2022/10/20 02:50:17;;;;;;;57.13;19.53;;;14.60;99.90;;;;;;5036602;28;20483;-61
2022/10/20 02:52:44;;;;;;;36.33;18.27;;;;;;;;;;5038845;28;20469;-62
2022/10/20 02:55:11;;;;;;;50.90;21.77;;;14.60;99.90;;;;;;5034916;28;20832;-61
2022/10/20 02:57:38;;;;;;;51.10;18.77;;;14.60;99.90;;;;;;5032413;28;20907;-61
2022/10/20 03:00:06;;;;;;;44.93;22.40;;;15.40;99.90;;;;;;5037934;28;20484;-62
2022/10/20 03:02:33;;;;;;;46.33;19.00;;;;;;;;;;5039554;28;20502;-62
2022/10/20 03:05:01;;;;;;;55.90;22.97;;;;;;;;;;5036306;28;20479;-63
2022/10/20 03:07:28;;;;;;;52.93;20.93;;;14.60;99.90;;;;;;5032272;28;20472;-62
2022/10/20 03:09:55;;;;;;;46.37;21.27;;;14.60;99.90;;;;;;5036592;28;21051;-62
2022/10/20 03:12:22;;;;;;;45.90;18.50;;;;;;;;;;5043746;28;20491;-62
2022/10/20 03:14:49;;;;;;;52.57;19.23;;;;;;;;;;5058883;28;20681;-61
2022/10/20 03:17:16;;;;;;;51.43;21.60;;;;;;;;;;5029941;28;20546;-61
2022/10/20 03:19:43;;;;;;;47.43;18.30;;;;;;;;;;5044830;28;20483;-62
2022/10/20 03:22:11;;;;;;;63.17;24.63;;;14.50;99.90;;;;;;5034912;28;20483;-61
2022/10/20 03:24:38;;;;;;;102.43;24.33;;;;;;;;;;5037917;28;20480;-61
2022/10/20 03:27:05;;;;;;;139.67;28.50;;;;;;;;;;5034754;28;20530;-62
2022/10/20 03:29:33;;;;;;;99.27;25.07;;;;;;;;;;5035825;28;20475;-61
2022/10/20 03:32:00;;;;;;;118.80;24.17;;;;;;;;;;5036916;28;21039;-62
2022/10/20 03:34:27;;;;;;;76.93;22.53;;;;;;;;;;5034505;28;20476;-62
2022/10/20 03:36:55;;;;;;;81.57;20.83;;;;;;;;;;5031680;28;20495;-62
2022/10/20 03:39:23;;;;;;;49.20;20.43;;;;;;;;;;5036800;28;20472;-62
2022/10/20 03:41:50;;;;;;;50.17;21.30;;;14.40;99.90;;;;;;5034543;28;20489;-60
2022/10/20 03:44:17;;;;;;;40.40;17.17;;;14.40;99.90;;;;;;5033845;28;20488;-62
2022/10/20 03:46:43;;;;;;;51.40;20.87;;;14.40;99.90;;;;;;5027777;28;20487;-61
2022/10/20 03:49:11;;;;;;;44.43;18.60;;;14.40;99.90;;;;;;5045872;28;20932;-61
2022/10/20 03:51:38;;;;;;;42.33;20.47;;;14.40;99.90;;;;;;5040207;28;20475;-61
2022/10/20 03:54:05;;;;;;;64.47;23.53;;;;;;;;;;5040846;28;20487;-61
2022/10/20 03:56:33;;;;;;;36.90;18.70;;;;;;;;;;5035550;28;20486;-61
2022/10/20 03:59:00;;;;;;;54.43;22.07;;;14.40;99.90;;;;;;5039295;28;20540;-61
2022/10/20 04:01:30;;;;;;;45.53;18.60;;;14.40;99.90;;;;;;5035509;28;20507;-63
2022/10/20 04:03:57;;;;;;;42.77;17.80;;;14.40;99.90;;;;;;5032892;28;20472;-60
2022/10/20 04:06:24;;;;;;;49.47;20.63;;;;;;;;;;5033244;28;20510;-61
2022/10/20 04:08:52;;;;;;;50.63;18.97;;;;;;;;;;5033833;28;21005;-62
2022/10/20 04:11:18;;;;;;;43.63;19.87;;;14.50;99.90;;;;;;5034579;28;20819;-61
2022/10/20 04:13:46;;;;;;;46.77;20.50;;;14.50;99.90;;;;;;5034022;28;21086;-62
2022/10/20 04:16:13;;;;;;;56.40;21.10;;;14.50;99.90;;;;;;5032796;28;20957;-61
2022/10/20 04:18:40;;;;;;;37.77;17.07;;;14.50;99.90;;;;;;5032044;28;20944;-61
2022/10/20 04:21:07;;;;;;;43.67;21.10;;;;;;;;;;5034249;28;20829;-61
2022/10/20 04:23:34;;;;;;;38.37;17.57;;;;;;;;;;5037121;28;20505;-61
2022/10/20 04:26:07;;;;;;;40.07;19.80;;;;;;;;;;5038226;28;20841;-62
2022/10/20 04:28:34;;;;;;;38.77;17.97;;;14.40;99.90;;;;;;5034427;28;20468;-62
2022/10/20 04:31:02;;;;;;;50.60;16.73;;;;;;;;;;5033959;28;20511;-61
2022/10/20 04:33:29;;;;;;;42.73;17.80;;;;;;;;;;5040965;28;20484;-61
2022/10/20 04:35:57;;;;;;;51.47;20.33;;;14.20;99.90;;;;;;5033853;28;20484;-61
2022/10/20 04:38:24;;;;;;;51.13;19.00;;;;;;;;;;5028821;28;21011;-61
2022/10/20 04:40:54;;;;;;;43.20;18.07;;;14.20;99.90;;;;;;5040264;28;20511;-62
2022/10/20 04:43:21;;;;;;;34.37;17.50;;;14.30;99.90;;;;;;5033695;28;20472;-61
2022/10/20 04:45:48;;;;;;;40.80;17.63;;;14.20;99.90;;;;;;5034023;28;20492;-61
2022/10/20 04:48:16;;;;;;;46.27;19.67;;;;;;;;;;5028913;28;20496;-62
2022/10/20 04:50:43;;;;;;;36.60;17.20;;;14.30;99.90;;;;;;5041408;28;20468;-62
2022/10/20 04:53:10;;;;;;;44.87;20.13;;;14.20;99.90;;;;;;5047207;28;20659;-62
2022/10/20 04:55:37;;;;;;;39.20;18.63;;;14.20;99.90;;;;;;5035152;28;20836;-61
2022/10/20 04:58:03;;;;;;;37.50;18.80;;;14.20;99.90;;;;;;5030129;28;20496;-61
2022/10/20 05:00:30;;;;;;;50.53;16.83;;;14.10;99.90;;;;;;5035716;28;20484;-61
2022/10/20 05:02:57;;;;;;;33.20;18.27;;;;;;;;;;5033173;28;20499;-60
2022/10/20 05:05:25;;;;;;;45.00;20.17;;;14.00;99.90;;;;;;5051533;28;20475;-61
2022/10/20 05:07:52;;;;;;;44.93;17.73;;;;;;;;;;5028004;28;20484;-62
2022/10/20 05:10:19;;;;;;;52.70;20.50;;;;;;;;;;5038776;28;20550;-62
2022/10/20 05:12:46;;;;;;;45.30;18.50;;;;;;;;;;5039147;28;20836;-62
2022/10/20 05:15:14;;;;;;;47.37;19.17;;;;;;;;;;5034530;28;20884;-62
2022/10/20 05:17:41;;;;;;;39.07;16.90;;;;;;;;;;5035961;28;20602;-62
2022/10/20 05:20:08;;;;;;;50.73;22.93;;;;;;;;;;5034347;28;20485;-62
2022/10/20 05:22:37;;;;;;;46.53;19.13;;;;;;;;;;5034211;28;20484;-62
2022/10/20 05:25:04;;;;;;;48.30;24.00;;;13.90;99.90;;;;;;5036946;28;20511;-62
2022/10/20 05:27:31;;;;;;;53.67;19.00;;;13.90;99.90;;;;;;5025667;28;20496;-62
2022/10/20 05:29:58;;;;;;;44.87;20.00;;;13.80;99.90;;;;;;5030541;28;20920;-62
2022/10/20 05:32:24;;;;;;;46.33;20.57;;;15.50;99.90;;;;;;5040485;28;20476;-62
2022/10/20 05:34:51;;;;;;;41.57;18.77;;;13.70;99.90;;;;;;5048356;28;20474;-63
2022/10/20 05:37:18;;;;;;;44.77;18.50;;;;;;;;;;5027008;28;20681;-62
2022/10/20 05:39:46;;;;;;;37.93;16.80;;;13.70;99.90;;;;;;5032803;28;20479;-63
2022/10/20 05:42:13;;;;;;;43.57;19.00;;;;;;;;;;5036650;28;20488;-63
2022/10/20 05:44:40;;;;;;;38.33;18.43;;;13.50;99.90;;;;;;5037458;28;20476;-62
2022/10/20 05:47:07;;;;;;;46.37;20.33;;;13.60;99.90;;;;;;5029573;28;20835;-62
2022/10/20 05:49:34;;;;;;;54.60;20.80;;;13.50;99.90;;;;;;5030969;28;20489;-62
2022/10/20 05:52:00;;;;;;;48.50;20.30;;;13.60;99.90;;;;;;5032680;28;20488;-62
2022/10/20 05:54:27;;;;;;;51.40;19.50;;;13.60;99.90;;;;;;5049764;28;20542;-62
2022/10/20 05:56:55;;;;;;;51.33;19.90;;;;;;;;;;5027945;28;20495;-62
2022/10/20 05:59:22;;;;;;;49.80;20.97;;;13.50;99.90;;;;;;5020959;28;20476;-62
2022/10/20 06:01:49;;;;;;;40.33;18.00;;;13.50;99.90;;;;;;5038149;28;20480;-61
2022/10/20 06:04:17;;;;;;;45.57;18.57;;;13.50;99.90;;;;;;5036713;28;20484;-63
2022/10/20 06:06:44;;;;;;;48.60;20.83;;;13.60;99.90;;;;;;5024516;28;20895;-63
2022/10/20 06:09:11;;;;;;;51.20;21.90;;;13.50;99.90;;;;;;5049613;28;20579;-62
2022/10/20 06:11:38;;;;;;;37.63;17.23;;;;;;;;;;5037618;28;20663;-62
2022/10/20 06:14:07;;;;;;;53.10;20.83;;;13.50;99.90;;;;;;5040382;28;20947;-62
2022/10/20 06:16:34;;;;;;;57.90;23.20;;;13.50;99.90;;;;;;5050085;28;20483;-62
2022/10/20 06:19:01;;;;;;;60.90;22.23;;;;;;;;;;5041048;28;20478;-63
2022/10/20 06:21:30;;;;;;;47.27;18.43;;;13.60;99.90;;;;;;5057374;28;20872;-62
2022/10/20 06:23:59;;;;;;;56.20;20.90;;;13.70;99.90;;;;;;5050395;28;20482;-63
2022/10/20 06:26:31;;;;;;;54.23;23.30;;;13.80;99.90;;;;;;5043808;28;20577;-62
2022/10/20 06:28:58;;;;;;;58.80;26.17;;;13.80;99.90;;;;;;5019800;28;20472;-62
2022/10/20 06:31:28;;;;;;;49.30;22.63;;;13.90;99.90;;;;;;5035096;28;20472;-62
2022/10/20 06:33:55;;;;;;;66.60;22.47;;;13.90;99.90;;;;;;5036497;28;20831;-62
2022/10/20 06:36:23;;;;;;;77.73;27.30;;;13.90;99.90;;;;;;5035556;28;20480;-64
2022/10/20 06:38:53;;;;;;;55.20;23.90;;;;;;;;;;5039293;28;20531;-62
2022/10/20 06:41:20;;;;;;;61.07;22.47;;;;;;;;;;5040792;28;20468;-63
2022/10/20 06:43:47;;;;;;;52.27;21.13;;;;;;;;;;5036647;28;20793;-63
2022/10/20 06:46:15;;;;;;;78.60;24.07;;;;;;;;;;5034427;28;20483;-62
2022/10/20 06:48:43;;;;;;;65.53;21.30;;;14.20;99.90;;;;;;5043419;28;20882;-62
2022/10/20 06:51:12;;;;;;;119.73;24.83;;;14.20;99.90;;;;;;5035383;28;21315;-62
2022/10/20 06:53:40;;;;;;;68.00;19.50;;;14.20;99.90;;;;;;5049947;28;20498;-62
2022/10/20 06:56:10;;;;;;;127.07;27.93;;;14.20;99.90;;;;;;5050884;28;20542;-61
2022/10/20 06:58:38;;;;;;;78.83;21.93;;;;;;;;;;5040622;28;20693;-63
2022/10/20 07:01:06;;;;;;;129.73;27.50;;;;;;;;;;5044358;28;21049;-62
2022/10/20 07:03:33;;;;;;;81.17;20.90;;;;;;;;;;5037283;28;20557;-62
2022/10/20 07:06:03;;;;;;;47.67;21.07;;;14.50;99.90;;;;;;5036606;28;20474;-63
2022/10/20 07:08:32;;;;;;;37.57;18.17;;;14.50;99.90;;;;;;5021321;28;20487;-61
2022/10/20 07:11:00;;;;;;;34.23;17.70;;;14.60;99.90;;;;;;5034350;28;20976;-62
2022/10/20 07:13:28;;;;;;;41.67;20.10;;;14.70;99.90;;;;;;5039761;28;20475;-63
2022/10/20 07:15:55;;;;;;;42.60;18.23;;;14.70;99.90;;;;;;5044288;28;20977;-61
2022/10/20 07:18:22;;;;;;;55.50;20.77;;;;;;;;;;5033082;28;20981;-62
2022/10/20 07:20:50;;;;;;;45.70;19.70;;;;;;;;;;5034737;28;20612;-62
2022/10/20 07:23:18;;;;;;;48.93;20.30;;;;;;;;;;5043867;28;20836;-61
2022/10/20 07:25:45;;;;;;;42.60;18.57;;;16.00;99.90;;;;;;5040615;28;20492;-62
2022/10/20 07:28:12;;;;;;;48.27;21.37;;;;;;;;;;5034747;28;20472;-61
2022/10/20 07:30:39;;;;;;;49.30;17.50;;;;;;;;;;5036634;28;20480;-63
2022/10/20 07:33:06;;;;;;;49.43;20.33;;;;;;;;;;5034075;28;20488;-61
2022/10/20 07:35:34;;;;;;;48.80;19.00;;;;;;;;;;5039793;28;20480;-61
2022/10/20 07:38:01;;;;;;;50.80;20.17;;;;;;;;;;5030266;28;20717;-62
2022/10/20 07:40:29;;;;;;;41.70;17.07;;;;;;;;;;5034673;28;20856;-61
2022/10/20 07:42:56;;;;;;;45.60;16.20;;;;;;;;;;5035042;28;20487;-61
2022/10/20 07:45:23;;;;;;;40.37;17.40;;;;;;;;;;5040096;28;20476;-61
2022/10/20 07:47:50;;;;;;;48.60;18.67;;;16.70;99.90;;;;;;5033207;28;20484;-61
2022/10/20 07:50:17;;;;;;;40.77;16.30;;;16.50;99.90;;;;;;5036534;28;20494;-61
2022/10/20 07:52:44;;;;;;;77.87;19.07;;;;;;;;;;5040530;28;20954;-62
2022/10/20 07:55:11;;;;;;;110.00;23.20;;;;;;;;;;5044865;28;20815;-62
2022/10/20 07:57:40;;;;;;;99.83;22.57;;;;;;;;;;5032622;28;20930;-62
2022/10/20 08:00:08;;;;;;;120.60;23.33;;;16.20;99.90;;;;;;5035187;28;20487;-63
2022/10/20 08:02:34;;;;;;;78.97;19.30;;;16.30;99.90;;;;;;5035392;28;20485;-61
2022/10/20 08:05:01;;;;;;;134.60;25.30;;;;;;;;;;5035496;28;20475;-63
2022/10/20 08:07:28;;;;;;;91.00;20.77;;;;;;;;;;5035342;28;20522;-61
2022/10/20 08:09:56;;;;;;;98.80;20.97;;;;;;;;;;5032901;28;21238;-63
2022/10/20 08:12:23;;;;;;;88.60;21.17;;;;;;;;;;5039942;28;20527;-62
2022/10/20 08:14:51;;;;;;;82.30;20.67;;;16.10;99.90;;;;;;5033743;28;21015;-62
2022/10/20 08:17:18;;;;;;;74.47;19.90;;;;;;;;;;5031491;28;21285;-61
2022/10/20 08:19:45;;;;;;;46.40;16.23;;;;;;;;;;5038718;28;21087;-63
2022/10/20 08:22:13;;;;;;;59.60;19.63;;;;;;;;;;5024585;28;20479;-62
2022/10/20 08:24:40;;;;;;;47.07;17.00;;;;;;;;;;5044965;28;20564;-63
2022/10/20 08:27:07;;;;;;;71.60;21.90;;;;;;;;;;5034730;28;20483;-61
2022/10/20 08:29:34;;;;;;;48.77;18.13;;;16.40;99.90;;;;;;5034430;28;20488;-61
2022/10/20 08:32:02;;;;;;;57.87;20.67;;;16.50;99.90;;;;;;5036838;28;20483;-62
2022/10/20 08:34:28;;;;;;;50.87;17.70;;;16.30;99.90;;;;;;5034107;28;21008;-62
2022/10/20 08:36:55;;;;;;;39.43;15.87;;;;;;;;;;5030862;28;20489;-63
2022/10/20 08:39:23;;;;;;;32.83;13.50;;;16.20;99.90;;;;;;5037096;28;20504;-63
2022/10/20 08:41:51;;;;;;;40.37;16.40;;;16.10;99.90;;;;;;5034902;28;20480;-62
2022/10/20 08:44:23;;;;;;;28.90;14.17;;;16.10;99.90;;;;;;5039874;28;21014;-62
2022/10/20 08:46:50;;;;;;;35.00;14.17;;;;;;;;;;5029340;28;20496;-61
2022/10/20 08:49:20;;;;;;;34.10;14.43;;;;;;;;;;5036202;28;20487;-62
2022/10/20 08:51:47;;;;;;;54.10;14.00;;;16.20;99.90;;;;;;5037514;28;20476;-62
2022/10/20 08:54:16;;;;;;;36.93;16.13;;;16.20;99.90;;;;;;5050678;28;20510;-63
2022/10/20 08:56:44;;;;;;;40.07;16.20;;;16.30;99.90;;;;;;5034044;28;20484;-61
2022/10/20 08:59:25;;;;;;;41.60;18.50;;;16.60;99.90;;;;;;5032491;28;20496;-62
2022/10/20 09:01:52;;;;;;;45.57;14.10;;;16.70;99.90;;;;;;5039009;28;20471;-61
2022/10/20 09:04:21;;;;;;;29.23;14.73;;;;;;;;;;5035109;28;20488;-63
2022/10/20 09:06:51;;;;;;;36.57;15.30;;;16.70;99.90;;;;;;5029149;28;20483;-63
2022/10/20 09:09:20;;;;;;;35.40;14.97;;;;;;;;;;5034510;28;20488;-63
2022/10/20 09:11:47;;;;;;;39.40;13.77;;;17.00;99.90;;;;;;5033723;28;20844;-63
2022/10/20 09:14:15;;;;;;;42.30;16.20;;;17.20;99.90;;;;;;5036502;28;20472;-63
2022/10/20 09:16:45;;;;;;;50.20;14.43;;;;;;;;;;5034981;28;21075;-62
2022/10/20 09:19:16;;;;;;;41.80;16.97;;;;;;;;;;5009886;28;20489;-63
2022/10/20 09:21:45;;;;;;;37.67;13.60;;;17.60;99.90;;;;;;5032191;28;20476;-63
2022/10/20 09:24:12;;;;;;;46.93;16.33;;;17.70;99.90;;;;;;5053710;28;20478;-63
2022/10/20 09:26:43;;;;;;;41.60;16.20;;;20.10;99.90;;;;;;5042415;28;20447;-63
2022/10/20 09:29:11;;;;;;;47.47;16.73;;;;;;;;;;5032248;28;20468;-63
2022/10/20 09:31:38;;;;;;;25.37;12.23;;;;;;;;;;5034654;28;20492;-62
2022/10/20 09:34:20;;;;;;;42.87;15.70;;;;;;;;;;5033564;28;20469;-62
2022/10/20 09:36:49;;;;;;;30.97;12.93;;;18.20;99.90;;;;;;5018327;28;20576;-63
2022/10/20 09:39:20;;;;;;;28.13;11.60;;;18.10;99.90;;;;;;5032034;28;20479;-63
2022/10/20 09:41:48;;;;;;;23.87;12.80;;;18.10;99.90;;;;;;5037861;28;20484;-62
2022/10/20 09:44:22;;;;;;;31.63;14.17;;;17.90;99.90;;;;;;5033690;28;20494;-63
2022/10/20 09:46:50;;;;;;;32.43;14.13;;;17.90;99.90;;;;;;5022976;28;20893;-62
2022/10/20 09:49:25;;;;;;;31.63;13.17;;;18.00;99.90;;;;;;5039587;28;20632;-64
2022/10/20 09:51:53;;;;;;;38.80;14.60;;;17.90;99.90;;;;;;5042562;28;20480;-62
2022/10/20 09:54:23;;;;;;;24.73;13.40;;;17.80;99.90;;;;;;5048658;28;20476;-63
2022/10/20 09:56:51;;;;;;;26.03;13.27;;;17.50;99.90;;;;;;5027745;28;20495;-64
2022/10/20 09:59:32;;;;;;;31.27;12.67;;;17.40;99.90;;;;;;5037980;28;20484;-62
2022/10/20 10:02:00;;;;;;;38.63;16.33;;;;;;;;;;5028241;28;20471;-62
2022/10/20 10:04:33;;;;;;;29.70;13.27;;;17.30;99.90;;;;;;5030649;28;20487;-63
2022/10/20 10:07:01;;;;;;;39.90;15.47;;;17.40;99.90;;;;;;5029668;28;20491;-62
2022/10/20 10:09:31;;;;;;;41.53;13.40;;;17.40;99.90;;;;;;5030588;28;20499;-62
2022/10/20 10:11:59;;;;;;;36.30;15.50;;;;;;;;;;5031788;28;21387;-63
2022/10/20 10:14:26;;;;;;;44.73;14.00;;;17.60;99.90;;;;;;5032862;28;21257;-62
2022/10/20 10:16:53;;;;;;;45.30;14.67;;;17.60;99.90;;;;;;5017241;28;20491;-62
2022/10/20 10:19:25;;;;;;;52.03;15.73;;;17.50;99.90;;;;;;5022110;28;20765;-62
2022/10/20 10:21:54;;;;;;;81.57;17.27;;;17.50;99.90;;;;;;5048064;28;20831;-63
2022/10/20 10:24:39;;;;;;;57.90;17.13;;;17.40;99.90;;;;;;5040854;28;20482;-62
2022/10/20 10:27:19;;;;;;;119.40;24.00;;;17.20;99.90;;;;;;5014318;28;20527;-62
2022/10/20 10:29:46;;;;;;;100.90;18.30;;;;;;;;;;5031412;28;20664;-62
2022/10/20 10:32:15;;;;;;;113.13;19.00;;;17.40;99.90;;;;;;5023870;28;20490;-63
2022/10/20 10:35:06;;;;;;;38.47;13.47;;;17.40;99.90;;;;;;5043240;28;20476;-62
2022/10/20 10:37:33;;;;;;;33.00;13.43;;;;;;;;;;5019933;28;20984;-63
2022/10/20 10:40:02;;;;;;;28.83;13.10;;;;;;;;;;5032221;28;20467;-63
2022/10/20 10:42:45;;;;;;;30.50;12.40;;;17.50;99.90;;;;;;5039115;28;20944;-62
2022/10/20 10:45:18;;;;;;;41.07;15.27;;;;;;;;;;5044877;28;20471;-62
2022/10/20 10:48:12;;;;;;;30.90;13.20;;;17.80;99.90;;;;;;5034381;28;20574;-63
2022/10/20 10:50:45;;;;;;;38.23;16.43;;;17.90;99.90;;;;;;5030979;28;20487;-63
2022/10/20 10:53:20;;;;;;;31.03;14.17;;;17.80;99.90;;;;;;5037463;28;20853;-63
2022/10/20 10:55:58;;;;;;;36.07;11.50;;;17.80;99.90;;;;;;5041047;28;20644;-63
2022/10/20 10:58:36;;;;;;;33.00;11.77;;;;;;;;;;5020809;28;20807;-61
2022/10/20 11:01:08;;;;;;;29.43;13.87;;;;;;;;;;5032152;28;20488;-61
2022/10/20 11:04:12;;;;;;;30.43;12.70;;;17.90;99.90;;;;;;5035683;28;21023;-62
2022/10/20 11:06:44;;;;;;;43.73;15.80;;;18.00;99.90;;;;;;5020644;28;20992;-63
2022/10/20 11:09:16;;;;;;;38.83;14.67;;;;;;;;;;5043040;28;20508;-61
2022/10/20 11:11:53;;;;;;;35.77;12.50;;;18.20;99.90;;;;;;5035537;28;20486;-62
2022/10/20 11:14:33;;;;;;;35.47;11.60;;;18.30;99.90;;;;;;5032665;28;20515;-62
2022/10/20 11:17:10;;;;;;;35.70;13.17;;;;;;;;;;5038803;28;20731;-63
2022/10/20 11:19:57;;;;;;;35.67;14.13;;;18.40;99.90;;;;;;5039905;28;20483;-63
2022/10/20 11:22:30;;;;;;;28.17;11.23;;;;;;;;;;5036387;28;21092;-61
2022/10/20 11:25:03;;;;;;;36.67;12.77;;;;;;;;;;5041719;28;20484;-62
2022/10/20 11:27:34;;;;;;;48.57;12.20;;;18.30;99.90;;;;;;5024169;28;20503;-62
2022/10/20 11:30:07;;;;;;;32.13;13.30;;;18.30;99.90;;;;;;5032146;28;20555;-62
2022/10/20 11:32:39;;;;;;;38.77;14.90;;;18.20;99.90;;;;;;5039147;28;20479;-61
2022/10/20 11:35:14;;;;;;;30.93;13.20;;;;;;;;;;5034186;28;20499;-62
2022/10/20 11:37:45;;;;;;;36.50;13.73;;;18.40;99.90;;;;;;5031336;28;21030;-62
2022/10/20 11:40:21;;;;;;;37.53;12.80;;;18.50;99.90;;;;;;5039640;28;20508;-61
2022/10/20 11:42:57;;;;;;;38.40;12.87;;;18.50;99.90;;;;;;5036094;28;20471;-63
2022/10/20 11:45:30;;;;;;;30.70;12.80;;;;;;;;;;5035699;28;20495;-61
2022/10/20 11:48:00;;;;;;;36.10;11.80;;;;;;;;;;5038869;28;21138;-62
2022/10/20 11:50:27;;;;;;;31.77;10.90;;;18.40;99.90;;;;;;5035686;28;20487;-62
2022/10/20 11:53:20;;;;;;;31.60;11.40;;;18.40;99.90;;;;;;5035795;28;20793;-63
2022/10/20 11:55:58;;;;;;;30.10;12.17;;;18.30;99.90;;;;;;5041009;28;20463;-63
2022/10/20 11:58:37;;;;;;;21.83;9.73;;;18.30;99.90;;;;;;5020029;28;20488;-63
2022/10/20 12:01:10;;;;;;;27.80;14.93;;;;;;;;;;5041835;28;20471;-62
2022/10/20 12:04:05;;;;;;;36.73;12.73;;;18.20;99.90;;;;;;5055236;28;20487;-63
2022/10/20 12:07:00;;;;;;;40.03;16.63;;;18.20;99.90;;;;;;5018152;28;20471;-62
2022/10/20 12:09:55;;;;;;;45.63;13.80;;;18.20;99.90;;;;;;5028874;28;20725;-62
2022/10/20 12:12:30;;;;;;;40.07;14.17;;;18.30;99.90;;;;;;5055420;28;20828;-61
2022/10/20 12:15:00;;;;;;;68.53;15.67;;;18.20;99.90;;;;;;5041836;28;20479;-62
2022/10/20 12:17:30;;;;;;;67.77;14.60;;;;;;;;;;5031032;28;20482;-61
2022/10/20 12:20:12;;;;;;;99.40;18.90;;;;;;;;;;5021927;28;20471;-62
2022/10/20 12:22:42;;;;;;;106.20;17.87;;;;;;;;;;5025971;28;20487;-62
2022/10/20 12:25:18;;;;;;;168.60;22.47;;;;;;;;;;5037091;28;20482;-61
2022/10/20 12:27:45;;;;;;;100.43;18.50;;;;;;;;;;5024510;28;20492;-62
2022/10/20 12:30:31;;;;;;;139.77;18.50;;;;;;;;;;5047368;28;20480;-62
2022/10/20 12:33:13;;;;;;;117.93;18.10;;;;;;;;;;5033696;28;20573;-63
2022/10/20 12:36:12;;;;;;;78.83;16.03;;;18.40;99.90;;;;;;5016404;28;20483;-62
2022/10/20 12:38:39;;;;;;;58.27;14.93;;;;;;;;;;5022161;28;20467;-62
2022/10/20 12:41:08;;;;;;;47.13;16.40;;;18.10;99.90;;;;;;5039459;28;20473;-61
2022/10/20 12:43:47;;;;;;;35.43;11.37;;;17.90;99.90;;;;;;5030994;28;20471;-62
2022/10/20 12:46:20;;;;;;;37.43;15.53;;;17.90;99.90;;;;;;5023637;28;21087;-61
2022/10/20 12:48:55;;;;;;;27.73;12.17;;;17.70;99.90;;;;;;5041162;28;20472;-63
2022/10/20 12:51:28;;;;;;;22.10;11.03;;;;;;;;;;5028191;28;20479;-61
2022/10/20 12:54:00;;;;;;;31.73;11.57;;;17.60;99.90;;;;;;5033160;28;20579;-62
2022/10/20 12:56:28;;;;;;;33.37;15.03;;;;;;;;;;5021990;28;20488;-61
2022/10/20 12:59:39;;;;;;;23.23;10.83;;;17.60;99.90;;;;;;5035554;28;20487;-62
2022/10/20 13:02:46;;;;;;;31.77;14.10;;;17.70;99.90;;;;;;5023051;28;20469;-60
2022/10/20 13:05:39;;;;;;;23.40;11.93;;;17.70;99.90;;;;;;5032303;28;20479;-62
2022/10/20 13:08:32;;;;;;;24.30;13.23;;;17.70;99.90;;;;;;5021261;28;20962;-63
2022/10/20 13:11:17;;;;;;;34.43;11.67;;;;;;;;;;5041340;28;21320;-62
2022/10/20 13:13:51;;;;;;;29.10;10.83;;;;;;;;;;5029723;28;21026;-61
2022/10/20 13:16:22;;;;;;;33.63;12.37;;;17.50;99.90;;;;;;5026980;28;20492;-61
2022/10/20 13:18:51;;;;;;;25.97;11.43;;;;;;;;;;5031865;28;20480;-62
2022/10/20 13:21:25;;;;;;;30.30;11.43;;;17.40;99.90;;;;;;5031702;28;20514;-61
2022/10/20 13:24:19;;;;;;;29.37;11.63;;;17.40;99.90;;;;;;5030664;28;20462;-61